createdAt,value
2018-03-01T00:00:41.776Z,-8.71
2018-03-01T00:01:51.477Z,-8.77
2018-03-01T00:03:01.165Z,-8.78
2018-03-01T00:04:10.855Z,-8.75
2018-03-01T00:05:20.912Z,-8.75
2018-03-01T00:06:30.626Z,-8.77
2018-03-01T00:07:40.831Z,-8.71
2018-03-01T00:08:50.783Z,-8.8
2018-03-01T00:10:00.728Z,-8.77
2018-03-01T00:11:10.684Z,-8.78
2018-03-01T00:12:20.633Z,-8.78
2018-03-01T00:13:30.064Z,-8.8
2018-03-01T00:14:39.490Z,-8.94
2018-03-01T00:15:49.167Z,-8.84
2018-03-01T00:16:58.849Z,-8.88
2018-03-01T00:18:08.791Z,-8.94
2018-03-01T00:19:18.479Z,-8.89
2018-03-01T00:20:28.432Z,-8.92
2018-03-01T00:21:38.384Z,-8.91
2018-03-01T00:22:48.357Z,-8.91
2018-03-01T00:23:57.810Z,-8.89
2018-03-01T00:25:07.520Z,-8.89
2018-03-01T00:26:17.218Z,-8.89
2018-03-01T00:27:27.190Z,-8.86
2018-03-01T00:28:37.144Z,-8.91
2018-03-01T00:29:47.092Z,-8.84
2018-03-01T00:30:57.043Z,-8.94
2018-03-01T00:32:06.994Z,-8.92
2018-03-01T00:33:16.679Z,-9.02
2018-03-01T00:34:26.378Z,-8.95
2018-03-01T00:35:36.337Z,-8.96
2018-03-01T00:36:45.516Z,-9.03
2018-03-01T00:37:55.203Z,-8.98
2018-03-01T00:39:05.405Z,-9.02
2018-03-01T00:40:15.347Z,-9.04
2018-03-01T00:41:25.028Z,-9.17
2018-03-01T00:42:34.977Z,-9.13
2018-03-01T00:43:44.666Z,-9.12
2018-03-01T00:44:54.361Z,-9.09
2018-03-01T00:46:04.318Z,-9.1
2018-03-01T00:47:14.270Z,-9.14
2018-03-01T00:48:23.964Z,-9.14
2018-03-01T00:49:33.672Z,-9.12
2018-03-01T00:50:43.620Z,-9.2
2018-03-01T00:51:53.819Z,-9.2
2018-03-01T00:53:03.506Z,-9.16
2018-03-01T00:54:13.203Z,-9.24
2018-03-01T00:55:23.159Z,-9.16
2018-03-01T00:56:33.111Z,-9.21
2018-03-01T00:57:43.117Z,-9.17
2018-03-01T00:58:53.074Z,-9.2
2018-03-01T01:00:03.034Z,-9.17
2018-03-01T01:01:12.987Z,-9.3
2018-03-01T01:02:22.680Z,-9.27
2018-03-01T01:03:32.631Z,-9.24
2018-03-01T01:04:42.591Z,-9.31
2018-03-01T01:05:52.542Z,-9.24
2018-03-01T01:07:02.296Z,-9.25
2018-03-01T01:08:11.726Z,-9.25
2018-03-01T01:09:20.888Z,-9.2
2018-03-01T01:10:31.151Z,-9.25
2018-03-01T01:11:40.841Z,-9.24
2018-03-01T01:12:50.538Z,-9.25
2018-03-01T01:14:00.492Z,-9.24
2018-03-01T01:15:09.662Z,-9.31
2018-03-01T01:16:19.629Z,-9.28
2018-03-01T01:17:29.275Z,-9.41
2018-03-01T01:18:38.957Z,-9.39
2018-03-01T01:19:48.910Z,-9.39
2018-03-01T01:20:58.872Z,-9.41
2018-03-01T01:22:08.045Z,-9.37
2018-03-01T01:23:17.737Z,-9.45
2018-03-01T01:24:27.484Z,-9.45
2018-03-01T01:25:36.912Z,-9.46
2018-03-01T01:26:46.348Z,-9.41
2018-03-01T01:27:56.038Z,-9.41
2018-03-01T01:29:05.992Z,-9.47
2018-03-01T01:30:15.157Z,-9.45
2018-03-01T01:31:25.098Z,-9.45
2018-03-01T01:32:34.522Z,-9.37
2018-03-01T01:33:43.955Z,-9.43
2018-03-01T01:34:53.888Z,-9.41
2018-03-01T01:36:03.887Z,-9.37
2018-03-01T01:37:13.316Z,-9.45
2018-03-01T01:38:23.269Z,-9.43
2018-03-01T01:39:32.965Z,-9.43
2018-03-01T01:40:42.928Z,-9.45
2018-03-01T01:41:52.610Z,-9.37
2018-03-01T01:43:02.305Z,-9.52
2018-03-01T01:44:12.259Z,-9.41
2018-03-01T01:45:22.212Z,-9.49
2018-03-01T01:46:32.172Z,-9.5
2018-03-01T01:47:41.590Z,-9.47
2018-03-01T01:48:51.279Z,-9.45
2018-03-01T01:50:01.233Z,-9.46
2018-03-01T01:51:10.910Z,-9.46
2018-03-01T01:52:20.623Z,-9.41
2018-03-01T01:53:30.579Z,-9.49
2018-03-01T01:54:40.536Z,-9.43
2018-03-01T01:55:50.220Z,-9.46
2018-03-01T01:56:59.908Z,-9.55
2018-03-01T01:58:09.600Z,-9.53
2018-03-01T01:59:19.283Z,-9.6
2018-03-01T02:00:28.973Z,-9.58
2018-03-01T02:01:37.876Z,-9.56
2018-03-01T02:02:47.829Z,-9.56
2018-03-01T02:03:57.770Z,-9.56
2018-03-01T02:05:07.465Z,-9.58
2018-03-01T02:06:17.408Z,-9.6
2018-03-01T02:07:27.105Z,-9.5
2018-03-01T02:08:36.804Z,-9.67
2018-03-01T02:09:46.755Z,-9.64
2018-03-01T02:10:56.710Z,-9.64
2018-03-01T02:12:06.392Z,-9.65
2018-03-01T02:13:16.073Z,-9.7
2018-03-01T02:14:26.019Z,-9.65
2018-03-01T02:15:35.712Z,-9.61
2018-03-01T02:16:45.681Z,-9.68
2018-03-01T02:17:55.363Z,-9.68
2018-03-01T02:19:05.317Z,-9.64
2018-03-01T02:20:14.748Z,-9.73
2018-03-01T02:21:24.426Z,-9.67
2018-03-01T02:22:33.860Z,-9.67
2018-03-01T02:23:43.559Z,-9.78
2018-03-01T02:24:53.513Z,-9.67
2018-03-01T02:26:03.449Z,-9.71
2018-03-01T02:27:12.884Z,-9.71
2018-03-01T02:28:22.586Z,-9.74
2018-03-01T02:29:32.535Z,-9.73
2018-03-01T02:30:41.965Z,-9.76
2018-03-01T02:31:51.915Z,-9.74
2018-03-01T02:33:01.617Z,-9.82
2018-03-01T02:34:11.312Z,-9.79
2018-03-01T02:35:21.301Z,-9.82
2018-03-01T02:36:31.259Z,-9.91
2018-03-01T02:37:40.957Z,-9.89
2018-03-01T02:38:50.959Z,-9.86
2018-03-01T02:40:00.666Z,-9.85
2018-03-01T02:41:10.365Z,-9.91
2018-03-01T02:42:20.060Z,-9.85
2018-03-01T02:43:29.762Z,-9.92
2018-03-01T02:44:39.724Z,-9.89
2018-03-01T02:45:49.689Z,-9.92
2018-03-01T02:46:59.125Z,-9.86
2018-03-01T02:48:08.816Z,-9.94
2018-03-01T02:49:18.260Z,-9.91
2018-03-01T02:50:27.943Z,-9.97
2018-03-01T02:51:37.629Z,-9.97
2018-03-01T02:52:47.329Z,-10.05
2018-03-01T02:53:57.029Z,-9.97
2018-03-01T02:55:06.732Z,-9.94
2018-03-01T02:56:16.421Z,-9.92
2018-03-01T02:57:26.111Z,-10.02
2018-03-01T02:58:35.840Z,-10.02
2018-03-01T02:59:45.792Z,-9.99
2018-03-01T03:00:55.752Z,-9.96
2018-03-01T03:02:05.433Z,-10.02
2018-03-01T03:03:15.393Z,-10.06
2018-03-01T03:04:25.340Z,-10.12
2018-03-01T03:05:35.032Z,-10.07
2018-03-01T03:06:44.729Z,-10.05
2018-03-01T03:07:54.413Z,-10.03
2018-03-01T03:09:03.850Z,-10.05
2018-03-01T03:10:13.810Z,-10.05
2018-03-01T03:11:23.755Z,-10.06
2018-03-01T03:12:33.184Z,-10.06
2018-03-01T03:13:42.616Z,-10.09
2018-03-01T03:14:52.300Z,-10.1
2018-03-01T03:16:02.255Z,-10.15
2018-03-01T03:17:11.680Z,-10.09
2018-03-01T03:18:21.626Z,-10.1
2018-03-01T03:19:31.317Z,-10.09
2018-03-01T03:20:41.015Z,-10.07
2018-03-01T03:21:50.966Z,-10.12
2018-03-01T03:23:00.655Z,-10.03
2018-03-01T03:24:10.616Z,-10.17
2018-03-01T03:25:20.059Z,-10.07
2018-03-01T03:26:30.003Z,-10.07
2018-03-01T03:27:39.958Z,-10.18
2018-03-01T03:28:49.654Z,-10.07
2018-03-01T03:29:59.347Z,-10.17
2018-03-01T03:31:09.304Z,-10.06
2018-03-01T03:32:19.264Z,-10.1
2018-03-01T03:33:28.955Z,-10.12
2018-03-01T03:34:38.660Z,-10.12
2018-03-01T03:35:48.624Z,-10.14
2018-03-01T03:36:58.590Z,-10.18
2018-03-01T03:38:08.542Z,-10.15
2018-03-01T03:39:18.236Z,-10.14
2018-03-01T03:40:28.188Z,-10.14
2018-03-01T03:41:37.874Z,-10.17
2018-03-01T03:42:47.816Z,-10.14
2018-03-01T03:43:57.511Z,-10.14
2018-03-01T03:45:07.457Z,-10.21
2018-03-01T03:46:17.401Z,-10.21
2018-03-01T03:47:27.089Z,-10.24
2018-03-01T03:48:37.033Z,-10.3
2018-03-01T03:49:47.232Z,-10.25
2018-03-01T03:50:57.181Z,-10.23
2018-03-01T03:52:06.887Z,-10.27
2018-03-01T03:53:16.840Z,-10.41
2018-03-01T03:54:26.534Z,-10.35
2018-03-01T03:55:36.490Z,-10.36
2018-03-01T03:56:46.180Z,-10.38
2018-03-01T03:57:55.880Z,-10.31
2018-03-01T03:59:05.570Z,-10.35
2018-03-01T04:00:16.074Z,-10.42
2018-03-01T04:01:25.759Z,-10.42
2018-03-01T04:02:35.280Z,-10.38
2018-03-01T04:03:45.234Z,-10.35
2018-03-01T04:04:55.185Z,-10.46
2018-03-01T04:06:04.872Z,-10.49
2018-03-01T04:07:14.560Z,-10.45
2018-03-01T04:08:24.258Z,-10.45
2018-03-01T04:09:33.950Z,-10.48
2018-03-01T04:10:44.145Z,-10.49
2018-03-01T04:11:54.083Z,-10.56
2018-03-01T04:13:03.780Z,-10.55
2018-03-01T04:14:13.725Z,-10.57
2018-03-01T04:15:23.663Z,-10.55
2018-03-01T04:16:33.340Z,-10.52
2018-03-01T04:17:43.287Z,-10.57
2018-03-01T04:18:53.248Z,-10.56
2018-03-01T04:20:03.192Z,-10.48
2018-03-01T04:21:13.133Z,-10.53
2018-03-01T04:22:22.575Z,-10.6
2018-03-01T04:23:32.518Z,-10.69
2018-03-01T04:24:41.945Z,-10.59
2018-03-01T04:25:51.640Z,-10.65
2018-03-01T04:27:01.339Z,-10.57
2018-03-01T04:28:11.281Z,-10.59
2018-03-01T04:29:21.234Z,-10.6
2018-03-01T04:30:30.912Z,-10.71
2018-03-01T04:31:40.597Z,-10.63
2018-03-01T04:32:50.337Z,-10.73
2018-03-01T04:34:00.347Z,-10.59
2018-03-01T04:35:10.043Z,-10.66
2018-03-01T04:36:19.735Z,-10.65
2018-03-01T04:37:29.444Z,-10.6
2018-03-01T04:38:39.127Z,-10.63
2018-03-01T04:39:48.811Z,-10.59
2018-03-01T04:40:57.986Z,-10.78
2018-03-01T04:42:07.683Z,-10.73
2018-03-01T04:43:16.605Z,-10.74
2018-03-01T04:44:26.553Z,-10.78
2018-03-01T04:45:35.973Z,-10.85
2018-03-01T04:46:45.919Z,-10.76
2018-03-01T04:47:55.873Z,-10.85
2018-03-01T04:49:05.567Z,-10.8
2018-03-01T04:50:15.518Z,-10.77
2018-03-01T04:51:24.947Z,-10.76
2018-03-01T04:52:34.910Z,-10.78
2018-03-01T04:53:44.601Z,-10.88
2018-03-01T04:54:54.298Z,-10.8
2018-03-01T04:56:03.977Z,-10.78
2018-03-01T04:57:13.931Z,-10.74
2018-03-01T04:58:23.609Z,-10.85
2018-03-01T04:59:33.288Z,-10.8
2018-03-01T05:00:43.223Z,-10.74
2018-03-01T05:01:52.924Z,-10.8
2018-03-01T05:03:02.885Z,-10.78
2018-03-01T05:04:12.573Z,-10.83
2018-03-01T05:05:22.264Z,-10.81
2018-03-01T05:06:32.210Z,-10.8
2018-03-01T05:07:42.151Z,-10.95
2018-03-01T05:08:52.097Z,-10.85
2018-03-01T05:10:01.791Z,-10.87
2018-03-01T05:11:11.478Z,-10.8
2018-03-01T05:12:21.173Z,-10.81
2018-03-01T05:13:30.599Z,-10.85
2018-03-01T05:14:40.542Z,-10.83
2018-03-01T05:15:50.228Z,-10.8
2018-03-01T05:16:59.919Z,-10.66
2018-03-01T05:18:09.923Z,-10.81
2018-03-01T05:19:19.893Z,-10.81
2018-03-01T05:20:29.581Z,-10.77
2018-03-01T05:21:39.531Z,-10.74
2018-03-01T05:22:49.235Z,-10.74
2018-03-01T05:23:59.448Z,-10.77
2018-03-01T05:25:09.443Z,-10.8
2018-03-01T05:26:19.099Z,-10.81
2018-03-01T05:27:28.784Z,-10.83
2018-03-01T05:28:38.744Z,-10.77
2018-03-01T05:29:48.441Z,-10.83
2018-03-01T05:30:58.137Z,-10.8
2018-03-01T05:32:07.825Z,-10.78
2018-03-01T05:33:17.772Z,-10.83
2018-03-01T05:34:26.939Z,-10.85
2018-03-01T05:35:36.635Z,-10.87
2018-03-01T05:36:46.578Z,-10.83
2018-03-01T05:37:56.530Z,-10.92
2018-03-01T05:39:06.508Z,-10.83
2018-03-01T05:40:16.451Z,-10.88
2018-03-01T05:41:26.418Z,-10.87
2018-03-01T05:42:36.361Z,-10.95
2018-03-01T05:43:46.306Z,-10.85
2018-03-01T05:44:55.734Z,-10.93
2018-03-01T05:46:05.678Z,-10.92
2018-03-01T05:47:15.658Z,-10.92
2018-03-01T05:48:25.332Z,-10.87
2018-03-01T05:49:35.277Z,-10.9
2018-03-01T05:50:45.224Z,-11
2018-03-01T05:51:54.911Z,-10.95
2018-03-01T05:53:04.868Z,-11.03
2018-03-01T05:54:14.822Z,-10.99
2018-03-01T05:55:24.767Z,-10.96
2018-03-01T05:56:34.449Z,-10.99
2018-03-01T05:57:44.434Z,-10.96
2018-03-01T05:58:54.391Z,-11.07
2018-03-01T06:00:04.337Z,-11.05
2018-03-01T06:01:14.034Z,-11.1
2018-03-01T06:02:23.720Z,-11.1
2018-03-01T06:03:33.411Z,-11.11
2018-03-01T06:04:43.117Z,-11.16
2018-03-01T06:05:52.586Z,-11.14
2018-03-01T06:07:02.287Z,-11.11
2018-03-01T06:08:11.990Z,-11.17
2018-03-01T06:09:21.951Z,-11.2
2018-03-01T06:10:31.465Z,-11.24
2018-03-01T06:11:41.432Z,-11.1
2018-03-01T06:12:51.388Z,-11.1
2018-03-01T06:14:00.831Z,-11.14
2018-03-01T06:15:10.770Z,-11.11
2018-03-01T06:16:20.460Z,-11.07
2018-03-01T06:17:30.149Z,-11
2018-03-01T06:18:40.146Z,-11.07
2018-03-01T06:19:50.106Z,-11.14
2018-03-01T06:20:59.794Z,-11.11
2018-03-01T06:22:09.495Z,-11.14
2018-03-01T06:23:18.926Z,-11.16
2018-03-01T06:24:28.898Z,-11.16
2018-03-01T06:25:38.862Z,-11.16
2018-03-01T06:26:48.801Z,-11.14
2018-03-01T06:27:58.862Z,-11.13
2018-03-01T06:29:08.367Z,-11.13
2018-03-01T06:30:18.054Z,-11.11
2018-03-01T06:31:27.744Z,-11.06
2018-03-01T06:32:37.425Z,-10.96
2018-03-01T06:33:47.375Z,-10.99
2018-03-01T06:34:57.326Z,-10.99
2018-03-01T06:36:07.333Z,-10.96
2018-03-01T06:37:17.024Z,-11
2018-03-01T06:38:26.723Z,-11.05
2018-03-01T06:39:36.679Z,-11.03
2018-03-01T06:40:46.379Z,-11.03
2018-03-01T06:41:56.343Z,-11.14
2018-03-01T06:43:06.297Z,-10.95
2018-03-01T06:44:16.249Z,-11.02
2018-03-01T06:45:26.192Z,-10.93
2018-03-01T06:46:35.616Z,-10.99
2018-03-01T06:47:45.306Z,-10.9
2018-03-01T06:48:55.257Z,-11.05
2018-03-01T06:50:05.225Z,-10.99
2018-03-01T06:51:15.174Z,-10.93
2018-03-01T06:52:25.138Z,-11
2018-03-01T06:53:34.326Z,-10.97
2018-03-01T06:54:44.024Z,-10.9
2018-03-01T06:55:53.984Z,-10.9
2018-03-01T06:57:03.955Z,-10.88
2018-03-01T06:58:13.126Z,-10.83
2018-03-01T06:59:23.075Z,-10.85
2018-03-01T07:00:33.062Z,-10.74
2018-03-01T07:01:42.761Z,-10.85
2018-03-01T07:02:52.463Z,-10.67
2018-03-01T07:04:01.924Z,-10.76
2018-03-01T07:05:11.614Z,-10.71
2018-03-01T07:06:21.586Z,-10.71
2018-03-01T07:07:31.288Z,-10.77
2018-03-01T07:08:41.245Z,-10.76
2018-03-01T07:09:50.945Z,-10.77
2018-03-01T07:11:00.891Z,-10.6
2018-03-01T07:12:10.650Z,-10.65
2018-03-01T07:13:20.352Z,-10.69
2018-03-01T07:14:30.039Z,-10.56
2018-03-01T07:15:39.983Z,-10.56
2018-03-01T07:16:49.421Z,-10.45
2018-03-01T07:17:59.420Z,-10.48
2018-03-01T07:19:09.129Z,-10.52
2018-03-01T07:20:18.822Z,-10.49
2018-03-01T07:21:28.505Z,-10.38
2018-03-01T07:22:38.008Z,-10.41
2018-03-01T07:23:47.390Z,-10.24
2018-03-01T07:24:56.816Z,-10.38
2018-03-01T07:26:06.511Z,-10.24
2018-03-01T07:27:15.966Z,-10.28
2018-03-01T07:28:25.389Z,-10.36
2018-03-01T07:29:35.083Z,-10.27
2018-03-01T07:30:44.586Z,-10.31
2018-03-01T07:31:54.526Z,-10.3
2018-03-01T07:33:04.550Z,-10.35
2018-03-01T07:34:14.564Z,-10.3
2018-03-01T07:35:24.253Z,-10.24
2018-03-01T07:36:33.969Z,-10.25
2018-03-01T07:37:43.683Z,-10.18
2018-03-01T07:38:53.656Z,-10.12
2018-03-01T07:40:02.833Z,-10.2
2018-03-01T07:41:12.586Z,-10.23
2018-03-01T07:42:22.286Z,-10.1
2018-03-01T07:43:31.719Z,-10.1
2018-03-01T07:44:41.397Z,-10.06
2018-03-01T07:45:51.082Z,-9.97
2018-03-01T07:47:01.052Z,-10.02
2018-03-01T07:48:11.015Z,-9.96
2018-03-01T07:49:20.185Z,-9.89
2018-03-01T07:50:30.143Z,-9.88
2018-03-01T07:51:39.580Z,-9.82
2018-03-01T07:52:49.004Z,-9.81
2018-03-01T07:53:58.973Z,-9.88
2018-03-01T07:55:08.665Z,-9.92
2018-03-01T07:56:18.514Z,-9.89
2018-03-01T07:57:28.668Z,-9.79
2018-03-01T07:58:38.627Z,-9.74
2018-03-01T07:59:48.343Z,-9.58
2018-03-01T08:00:58.068Z,-9.67
2018-03-01T08:02:07.762Z,-9.71
2018-03-01T08:03:17.466Z,-9.55
2018-03-01T08:04:26.953Z,-9.6
2018-03-01T08:05:36.689Z,-9.47
2018-03-01T08:06:46.678Z,-9.41
2018-03-01T08:07:56.657Z,-9.33
2018-03-01T08:09:06.351Z,-9.17
2018-03-01T08:10:16.313Z,-9.1
2018-03-01T08:11:25.731Z,-9.17
2018-03-01T08:12:35.688Z,-9.16
2018-03-01T08:13:45.641Z,-9.16
2018-03-01T08:14:55.359Z,-9.17
2018-03-01T08:16:05.069Z,-9.16
2018-03-01T08:17:14.775Z,-9.06
2018-03-01T08:18:24.698Z,-8.98
2018-03-01T08:19:34.387Z,-8.84
2018-03-01T08:20:44.104Z,-8.7
2018-03-01T08:21:53.812Z,-8.47
2018-03-01T08:23:02.757Z,-8.36
2018-03-01T08:24:12.723Z,-8.18
2018-03-01T08:25:22.522Z,-7.94
2018-03-01T08:26:32.974Z,-7.84
2018-03-01T08:27:42.936Z,-7.63
2018-03-01T08:28:52.895Z,-7.42
2018-03-01T08:30:02.863Z,-7.32
2018-03-01T08:31:12.303Z,-7.3
2018-03-01T08:32:22.276Z,-7.28
2018-03-01T08:33:31.975Z,-7.23
2018-03-01T08:34:41.418Z,-7.13
2018-03-01T08:35:51.394Z,-6.97
2018-03-01T08:37:01.358Z,-6.89
2018-03-01T08:38:11.620Z,-6.84
2018-03-01T08:39:21.325Z,-6.64
2018-03-01T08:40:31.295Z,-6.51
2018-03-01T08:41:41.070Z,-6.38
2018-03-01T08:42:51.150Z,-6.27
2018-03-01T08:44:01.201Z,-6.18
2018-03-01T08:45:10.917Z,-6.41
2018-03-01T08:46:20.619Z,-6.64
2018-03-01T08:47:30.592Z,-6.68
2018-03-01T08:48:40.584Z,-6.6
2018-03-01T08:49:50.624Z,-6.64
2018-03-01T08:51:00.586Z,-6.48
2018-03-01T08:52:10.277Z,-6.34
2018-03-01T08:53:20.234Z,-6.12
2018-03-01T08:54:30.349Z,-6.06
2018-03-01T08:55:40.302Z,-6.21
2018-03-01T08:56:50.002Z,-6.18
2018-03-01T08:57:59.481Z,-6.21
2018-03-01T08:59:09.233Z,-6.27
2018-03-01T09:00:18.685Z,-6.26
2018-03-01T09:01:28.591Z,-6.23
2018-03-01T09:02:38.557Z,-6.02
2018-03-01T09:03:47.476Z,-5.92
2018-03-01T09:04:57.156Z,-5.99
2018-03-01T09:06:06.836Z,-5.87
2018-03-01T09:07:16.520Z,-5.81
2018-03-01T09:08:26.278Z,-5.68
2018-03-01T09:09:36.008Z,-5.48
2018-03-01T09:10:45.455Z,-5.28
2018-03-01T09:11:55.455Z,-5.16
2018-03-01T09:13:05.194Z,-5.09
2018-03-01T09:14:14.652Z,-5.1
2018-03-01T09:15:24.369Z,-5.13
2018-03-01T09:16:34.353Z,-5.12
2018-03-01T09:17:44.365Z,-5.45
2018-03-01T09:18:53.820Z,-5.39
2018-03-01T09:20:04.037Z,-5.3
2018-03-01T09:21:13.768Z,-5.13
2018-03-01T09:22:23.745Z,-5.19
2018-03-01T09:23:33.724Z,-5.3
2018-03-01T09:24:43.808Z,-5.41
2018-03-01T09:25:53.783Z,-5.32
2018-03-01T09:27:03.738Z,-5.17
2018-03-01T09:28:13.448Z,-5.31
2018-03-01T09:29:22.638Z,-5.41
2018-03-01T09:30:32.742Z,-5.27
2018-03-01T09:31:42.158Z,-5.13
2018-03-01T09:32:52.153Z,-4.92
2018-03-01T09:34:01.877Z,-4.79
2018-03-01T09:35:11.596Z,-4.97
2018-03-01T09:36:21.583Z,-5.12
2018-03-01T09:37:31.280Z,-4.84
2018-03-01T09:38:41.295Z,-4.98
2018-03-01T09:39:51.272Z,-4.97
2018-03-01T09:41:01.258Z,-4.95
2018-03-01T09:42:10.987Z,-4.83
2018-03-01T09:43:20.966Z,-4.7
2018-03-01T09:44:30.938Z,-4.83
2018-03-01T09:45:40.648Z,-4.9
2018-03-01T09:46:50.435Z,-4.59
2018-03-01T09:48:00.485Z,-4.42
2018-03-01T09:49:10.476Z,-4.06
2018-03-01T09:50:20.459Z,-3.71
2018-03-01T09:51:30.464Z,-3.36
2018-03-01T09:52:40.429Z,-3.25
2018-03-01T09:53:50.456Z,-3.25
2018-03-01T09:55:00.451Z,-3.04
2018-03-01T09:56:10.454Z,-3.22
2018-03-01T09:57:20.447Z,-3.08
2018-03-01T09:58:30.194Z,-2.75
2018-03-01T09:59:39.899Z,-2.62
2018-03-01T10:00:49.878Z,-2.65
2018-03-01T10:01:59.616Z,-2.5
2018-03-01T10:03:09.746Z,-2.57
2018-03-01T10:04:19.220Z,-2.7
2018-03-01T10:05:28.987Z,-2.78
2018-03-01T10:06:38.750Z,-2.63
2018-03-01T10:07:48.734Z,-2.52
2018-03-01T10:08:58.700Z,-2.4
2018-03-01T10:10:08.688Z,-2.11
2018-03-01T10:11:18.693Z,-2.13
2018-03-01T10:12:28.664Z,-2.02
2018-03-01T10:13:38.689Z,-2.42
2018-03-01T10:14:48.466Z,-2.4
2018-03-01T10:15:58.457Z,-2.57
2018-03-01T10:17:08.170Z,-2.69
2018-03-01T10:18:17.899Z,-2.65
2018-03-01T10:19:27.879Z,-2.33
2018-03-01T10:20:37.636Z,-2.13
2018-03-01T10:21:47.694Z,-2.02
2018-03-01T10:22:57.453Z,-2.33
2018-03-01T10:24:06.916Z,-2.23
2018-03-01T10:25:16.630Z,-2.1
2018-03-01T10:26:26.366Z,-1.97
2018-03-01T10:27:35.833Z,-1.72
2018-03-01T10:28:45.326Z,-1.63
2018-03-01T10:29:55.380Z,-1.74
2018-03-01T10:31:04.836Z,-1.6
2018-03-01T10:32:14.300Z,-1.6
2018-03-01T10:33:24.028Z,-1.69
2018-03-01T10:34:34.005Z,-1.46
2018-03-01T10:35:43.471Z,-1.46
2018-03-01T10:36:53.207Z,-1.66
2018-03-01T10:38:02.925Z,-1.72
2018-03-01T10:39:12.694Z,-1.63
2018-03-01T10:40:22.413Z,-1.69
2018-03-01T10:41:32.411Z,-1.76
2018-03-01T10:42:41.874Z,-1.71
2018-03-01T10:43:51.861Z,-1.68
2018-03-01T10:45:01.943Z,-1.5
2018-03-01T10:46:11.957Z,-1.25
2018-03-01T10:47:21.985Z,-1.29
2018-03-01T10:48:31.709Z,-1.18
2018-03-01T10:49:41.706Z,-1.25
2018-03-01T10:50:51.699Z,-1.06
2018-03-01T10:52:01.424Z,-1.15
2018-03-01T10:53:10.930Z,-1.09
2018-03-01T10:54:20.680Z,-1.14
2018-03-01T10:55:30.195Z,-1.3
2018-03-01T10:56:40.449Z,-1.3
2018-03-01T10:57:50.184Z,-1.56
2018-03-01T10:58:59.672Z,-1.84
2018-03-01T11:00:09.675Z,-1.57
2018-03-01T11:01:19.672Z,-1.71
2018-03-01T11:02:29.691Z,-1.51
2018-03-01T11:03:39.405Z,-1.57
2018-03-01T11:04:49.153Z,-1.82
2018-03-01T11:05:58.407Z,-1.97
2018-03-01T11:07:08.123Z,-1.38
2018-03-01T11:08:17.861Z,-0.97
2018-03-01T11:09:27.612Z,-0.81
2018-03-01T11:10:37.623Z,-0.81
2018-03-01T11:11:47.689Z,-0.82
2018-03-01T11:12:57.186Z,-0.28
2018-03-01T11:14:06.898Z,-0.02
2018-03-01T11:15:16.903Z,-0.41
2018-03-01T11:16:26.661Z,-0.15
2018-03-01T11:17:36.469Z,-0.13
2018-03-01T11:18:45.702Z,-0.35
2018-03-01T11:19:54.934Z,-0.49
2018-03-01T11:21:04.374Z,-0.41
2018-03-01T11:22:14.083Z,0.08
2018-03-01T11:23:24.132Z,-0.06
2018-03-01T11:24:34.114Z,-0.05
2018-03-01T11:25:44.092Z,-0.13
2018-03-01T11:26:54.064Z,-0.42
2018-03-01T11:28:04.027Z,-0.28
2018-03-01T11:29:14.096Z,-0.09
2018-03-01T11:30:23.903Z,0.31
2018-03-01T11:31:33.354Z,0.59
2018-03-01T11:32:43.322Z,0.86
2018-03-01T11:33:53.041Z,0.67
2018-03-01T11:35:03.081Z,0.34
2018-03-01T11:36:12.918Z,-0.02
2018-03-01T11:37:22.636Z,0.06
2018-03-01T11:38:32.420Z,-0.35
2018-03-01T11:39:42.411Z,-0.17
2018-03-01T11:40:52.396Z,-0.05
2018-03-01T11:42:02.453Z,0.24
2018-03-01T11:43:12.766Z,0.48
2018-03-01T11:44:22.480Z,0.3
2018-03-01T11:45:32.485Z,0.36
2018-03-01T11:46:42.029Z,0.16
2018-03-01T11:47:52.028Z,-0.38
2018-03-01T11:49:01.737Z,-0.84
2018-03-01T11:50:11.211Z,-0.63
2018-03-01T11:51:20.938Z,-0.17
2018-03-01T11:52:30.641Z,-0.12
2018-03-01T11:53:40.636Z,0.02
2018-03-01T11:54:50.351Z,-0.02
2018-03-01T11:56:00.077Z,-0.18
2018-03-01T11:57:09.790Z,-0.39
2018-03-01T11:58:19.776Z,-0.63
2018-03-01T11:59:29.755Z,-0.49
2018-03-01T12:00:39.732Z,-0.51
2018-03-01T12:01:49.706Z,-0.66
2018-03-01T12:02:59.678Z,-0.46
2018-03-01T12:04:09.792Z,-0.21
2018-03-01T12:05:19.537Z,0.09
2018-03-01T12:06:29.259Z,0.12
2018-03-01T12:07:38.966Z,-0.15
2018-03-01T12:08:48.682Z,-0.03
2018-03-01T12:09:58.676Z,-0.42
2018-03-01T12:11:08.651Z,-0.39
2018-03-01T12:12:18.384Z,-0.31
2018-03-01T12:13:27.852Z,-0.06
2018-03-01T12:14:37.837Z,0.05
2018-03-01T12:15:47.810Z,0.13
2018-03-01T12:16:57.801Z,0.19
2018-03-01T12:18:07.549Z,0.3
2018-03-01T12:19:17.265Z,-0.09
2018-03-01T12:20:27.315Z,-0.23
2018-03-01T12:21:37.357Z,-0.42
2018-03-01T12:22:47.075Z,-0.28
2018-03-01T12:23:57.071Z,-0.44
2018-03-01T12:25:07.048Z,-0.57
2018-03-01T12:26:16.767Z,-0.64
2018-03-01T12:27:26.779Z,-0.63
2018-03-01T12:28:36.846Z,-0.63
2018-03-01T12:29:46.575Z,-1
2018-03-01T12:30:56.559Z,-1.09
2018-03-01T12:32:06.537Z,-1.01
2018-03-01T12:33:16.237Z,-0.84
2018-03-01T12:34:26.217Z,-0.91
2018-03-01T12:35:36.224Z,-1.09
2018-03-01T12:36:46.199Z,-0.96
2018-03-01T12:37:56.176Z,-0.84
2018-03-01T12:39:06.171Z,-0.38
2018-03-01T12:40:16.217Z,-0.1
2018-03-01T12:41:26.199Z,0.08
2018-03-01T12:42:36.177Z,-0.07
2018-03-01T12:43:46.151Z,-0.6
2018-03-01T12:44:56.126Z,-0.85
2018-03-01T12:46:06.261Z,-0.85
2018-03-01T12:47:16.137Z,-0.93
2018-03-01T12:48:26.238Z,-0.56
2018-03-01T12:49:36.220Z,-0.66
2018-03-01T12:50:46.211Z,-0.56
2018-03-01T12:51:56.183Z,-0.41
2018-03-01T12:53:06.159Z,-0.49
2018-03-01T12:54:16.136Z,-0.31
2018-03-01T12:55:25.851Z,-0.03
2018-03-01T12:56:35.835Z,0.23
2018-03-01T12:57:45.824Z,0.55
2018-03-01T12:58:55.545Z,0.52
2018-03-01T13:00:05.519Z,0.51
2018-03-01T13:01:15.496Z,0.92
2018-03-01T13:02:25.484Z,1.07
2018-03-01T13:03:35.204Z,1.34
2018-03-01T13:04:44.906Z,1.49
2018-03-01T13:05:54.878Z,1.6
2018-03-01T13:07:04.856Z,1.93
2018-03-01T13:08:14.862Z,2.36
2018-03-01T13:09:24.844Z,2.15
2018-03-01T13:10:34.547Z,1.64
2018-03-01T13:11:44.517Z,1.52
2018-03-01T13:12:54.237Z,1.52
2018-03-01T13:14:03.958Z,1.58
2018-03-01T13:15:14.068Z,1.53
2018-03-01T13:16:24.052Z,1.24
2018-03-01T13:17:34.015Z,0.52
2018-03-01T13:18:44.020Z,0.76
2018-03-01T13:19:53.751Z,0.58
2018-03-01T13:21:03.740Z,-0.13
2018-03-01T13:22:13.213Z,0.16
2018-03-01T13:23:22.931Z,0.48
2018-03-01T13:24:32.642Z,0.26
2018-03-01T13:25:42.340Z,-0.13
2018-03-01T13:26:52.337Z,-0.49
2018-03-01T13:28:02.041Z,-0.26
2018-03-01T13:29:12.012Z,0.2
2018-03-01T13:30:21.988Z,0.18
2018-03-01T13:31:31.724Z,-0.1
2018-03-01T13:32:41.192Z,-0.17
2018-03-01T13:33:51.190Z,-0.1
2018-03-01T13:35:00.911Z,0.15
2018-03-01T13:36:10.362Z,0.33
2018-03-01T13:37:20.354Z,0
2018-03-01T13:38:30.076Z,0.05
2018-03-01T13:39:40.054Z,0.19
2018-03-01T13:40:50.042Z,0.39
2018-03-01T13:41:59.760Z,0.36
2018-03-01T13:43:09.735Z,0.24
2018-03-01T13:44:19.739Z,0.3
2018-03-01T13:45:29.531Z,0.24
2018-03-01T13:46:39.503Z,0.42
2018-03-01T13:47:48.973Z,0.08
2018-03-01T13:48:58.685Z,0.29
2018-03-01T13:50:08.420Z,0.44
2018-03-01T13:51:17.869Z,0.66
2018-03-01T13:52:27.844Z,0.7
2018-03-01T13:53:37.815Z,0.64
2018-03-01T13:54:47.534Z,0.59
2018-03-01T13:55:57.237Z,0.2
2018-03-01T13:57:06.694Z,-0.03
2018-03-01T13:58:16.404Z,-0.12
2018-03-01T13:59:26.156Z,-0.13
2018-03-01T14:00:35.864Z,0.18
2018-03-01T14:01:45.576Z,0.3
2018-03-01T14:02:54.774Z,0.49
2018-03-01T14:04:04.487Z,0.82
2018-03-01T14:05:13.969Z,0.68
2018-03-01T14:06:23.950Z,0.76
2018-03-01T14:07:33.704Z,0.81
2018-03-01T14:08:43.729Z,0.51
2018-03-01T14:09:53.500Z,0.3
2018-03-01T14:11:03.504Z,-0.23
2018-03-01T14:12:12.709Z,-0.57
2018-03-01T14:13:22.697Z,-0.91
2018-03-01T14:14:32.403Z,-1.09
2018-03-01T14:15:42.376Z,-1.07
2018-03-01T14:16:52.377Z,-1.19
2018-03-01T14:18:02.106Z,-0.99
2018-03-01T14:19:11.825Z,-0.67
2018-03-01T14:20:21.533Z,-0.87
2018-03-01T14:21:31.245Z,-0.89
2018-03-01T14:22:40.957Z,-1.03
2018-03-01T14:23:50.926Z,-1.36
2018-03-01T14:25:00.649Z,-1.21
2018-03-01T14:26:10.131Z,-1.01
2018-03-01T14:27:19.914Z,-0.93
2018-03-01T14:28:29.909Z,-0.62
2018-03-01T14:29:39.608Z,-0.67
2018-03-01T14:30:49.382Z,-0.59
2018-03-01T14:31:59.447Z,-0.84
2018-03-01T14:33:09.413Z,-1.14
2018-03-01T14:34:18.865Z,-1.06
2018-03-01T14:35:28.846Z,-1.06
2018-03-01T14:36:38.863Z,-1.11
2018-03-01T14:37:48.675Z,-1.54
2018-03-01T14:38:58.144Z,-1.57
2018-03-01T14:40:07.597Z,-1.54
2018-03-01T14:41:17.067Z,-1.56
2018-03-01T14:42:26.524Z,-1.6
2018-03-01T14:43:36.254Z,-1.51
2018-03-01T14:44:46.240Z,-1.36
2018-03-01T14:45:56.210Z,-1.43
2018-03-01T14:47:06.188Z,-1.19
2018-03-01T14:48:15.636Z,-0.96
2018-03-01T14:49:25.344Z,-0.77
2018-03-01T14:50:35.308Z,-0.6
2018-03-01T14:51:45.020Z,-0.41
2018-03-01T14:52:54.730Z,-0.81
2018-03-01T14:54:04.184Z,-0.57
2018-03-01T14:55:13.652Z,-0.62
2018-03-01T14:56:23.637Z,-0.66